sensor_id;sensor_type;location;lat;lon;timestamp;P1;durP1;ratioP1;P2;durP2;ratioP2
62153;SDS011;48140;45.486;9.226;2022-08-14T00:02:14;4.32;;;1.88;;
62153;SDS011;48140;45.486;9.226;2022-08-14T00:04:40;6.03;;;1.77;;
62153;SDS011;48140;45.486;9.226;2022-08-14T00:07:06;3.83;;;1.98;;
62153;SDS011;48140;45.486;9.226;2022-08-14T00:09:33;5.43;;;2.20;;
62153;SDS011;48140;45.486;9.226;2022-08-14T00:11:59;4.03;;;1.90;;
62153;SDS011;48140;45.486;9.226;2022-08-14T00:14:25;3.25;;;1.90;;
62153;SDS011;48140;45.486;9.226;2022-08-14T00:16:52;2.50;;;1.80;;
62153;SDS011;48140;45.486;9.226;2022-08-14T00:19:19;3.22;;;1.90;;
62153;SDS011;48140;45.486;9.226;2022-08-14T00:21:45;3.40;;;2.08;;
62153;SDS011;48140;45.486;9.226;2022-08-14T00:24:12;6.95;;;2.08;;
62153;SDS011;48140;45.486;9.226;2022-08-14T00:26:37;3.45;;;1.95;;
62153;SDS011;48140;45.486;9.226;2022-08-14T00:29:03;2.63;;;1.90;;
62153;SDS011;48140;45.486;9.226;2022-08-14T00:31:29;2.75;;;1.80;;
62153;SDS011;48140;45.486;9.226;2022-08-14T00:33:54;5.68;;;2.15;;
62153;SDS011;48140;45.486;9.226;2022-08-14T00:36:21;3.55;;;2.20;;
62153;SDS011;48140;45.486;9.226;2022-08-14T00:38:48;3.22;;;1.88;;
62153;SDS011;48140;45.486;9.226;2022-08-14T00:41:14;4.00;;;1.80;;
62153;SDS011;48140;45.486;9.226;2022-08-14T00:43:39;2.42;;;1.70;;
62153;SDS011;48140;45.486;9.226;2022-08-14T00:46:06;1.90;;;1.70;;
62153;SDS011;48140;45.486;9.226;2022-08-14T00:48:34;2.80;;;1.83;;
62153;SDS011;48140;45.486;9.226;2022-08-14T00:51:00;2.92;;;1.80;;
62153;SDS011;48140;45.486;9.226;2022-08-14T00:53:27;3.10;;;1.90;;
62153;SDS011;48140;45.486;9.226;2022-08-14T00:55:53;2.72;;;1.83;;
62153;SDS011;48140;45.486;9.226;2022-08-14T00:58:20;3.00;;;1.73;;
62153;SDS011;48140;45.486;9.226;2022-08-14T01:00:56;2.22;;;1.70;;
62153;SDS011;48140;45.486;9.226;2022-08-14T09:23:02;2.78;;;1.80;;
62153;SDS011;48140;45.486;9.226;2022-08-14T09:25:34;4.95;;;1.65;;
62153;SDS011;48140;45.486;9.226;2022-08-14T09:28:00;4.63;;;1.70;;
62153;SDS011;48140;45.486;9.226;2022-08-14T09:30:28;3.72;;;2.13;;
62153;SDS011;48140;45.486;9.226;2022-08-14T09:38:53;4.43;;;2.20;;
62153;SDS011;48140;45.486;9.226;2022-08-14T09:46:31;3.63;;;2.00;;
62153;SDS011;48140;45.486;9.226;2022-08-14T09:48:59;6.18;;;1.88;;
62153;SDS011;48140;45.486;9.226;2022-08-14T09:51:28;2.95;;;1.90;;
62153;SDS011;48140;45.486;9.226;2022-08-14T09:54:02;2.58;;;1.70;;
62153;SDS011;48140;45.486;9.226;2022-08-14T09:56:47;7.90;;;2.10;;
62153;SDS011;48140;45.486;9.226;2022-08-14T09:59:15;4.00;;;2.22;;
62153;SDS011;48140;45.486;9.226;2022-08-14T10:01:46;5.97;;;2.40;;
62153;SDS011;48140;45.486;9.226;2022-08-14T10:04:20;3.20;;;2.33;;
62153;SDS011;48140;45.486;9.226;2022-08-14T10:06:48;4.05;;;2.60;;
62153;SDS011;48140;45.486;9.226;2022-08-14T10:09:15;4.57;;;2.40;;
62153;SDS011;48140;45.486;9.226;2022-08-14T10:11:55;3.78;;;2.00;;
62153;SDS011;48140;45.486;9.226;2022-08-14T10:14:23;5.57;;;2.10;;
62153;SDS011;48140;45.486;9.226;2022-08-14T10:16:53;3.60;;;2.05;;
62153;SDS011;48140;45.486;9.226;2022-08-14T10:19:29;9.05;;;3.13;;
62153;SDS011;48140;45.486;9.226;2022-08-14T10:21:56;4.45;;;2.55;;
62153;SDS011;48140;45.486;9.226;2022-08-14T10:24:41;4.20;;;2.72;;
62153;SDS011;48140;45.486;9.226;2022-08-14T10:27:17;6.15;;;2.60;;
62153;SDS011;48140;45.486;9.226;2022-08-14T10:29:48;4.47;;;2.53;;
62153;SDS011;48140;45.486;9.226;2022-08-14T10:34:47;3.10;;;1.92;;
62153;SDS011;48140;45.486;9.226;2022-08-14T10:37:14;4.30;;;2.10;;
62153;SDS011;48140;45.486;9.226;2022-08-14T10:39:56;5.22;;;2.22;;
62153;SDS011;48140;45.486;9.226;2022-08-14T10:42:33;2.97;;;2.15;;
62153;SDS011;48140;45.486;9.226;2022-08-14T10:45:02;3.50;;;1.83;;
62153;SDS011;48140;45.486;9.226;2022-08-14T10:47:40;2.67;;;1.95;;
62153;SDS011;48140;45.486;9.226;2022-08-14T10:50:06;3.88;;;2.17;;
62153;SDS011;48140;45.486;9.226;2022-08-14T10:52:35;2.90;;;1.70;;
62153;SDS011;48140;45.486;9.226;2022-08-14T10:55:07;6.97;;;2.20;;
62153;SDS011;48140;45.486;9.226;2022-08-14T10:57:54;3.50;;;2.00;;
62153;SDS011;48140;45.486;9.226;2022-08-14T11:00:24;2.63;;;1.60;;
62153;SDS011;48140;45.486;9.226;2022-08-14T11:02:59;3.35;;;1.80;;
62153;SDS011;48140;45.486;9.226;2022-08-14T11:05:46;2.92;;;1.73;;
62153;SDS011;48140;45.486;9.226;2022-08-14T11:10:47;3.88;;;1.80;;
62153;SDS011;48140;45.486;9.226;2022-08-14T11:13:22;2.60;;;1.60;;
62153;SDS011;48140;45.486;9.226;2022-08-14T11:15:54;2.60;;;1.73;;
62153;SDS011;48140;45.486;9.226;2022-08-14T11:18:21;2.45;;;1.60;;
62153;SDS011;48140;45.486;9.226;2022-08-14T11:20:49;2.83;;;1.85;;
62153;SDS011;48140;45.486;9.226;2022-08-14T11:23:21;2.50;;;1.70;;
62153;SDS011;48140;45.486;9.226;2022-08-14T11:25:55;3.63;;;2.10;;
62153;SDS011;48140;45.486;9.226;2022-08-14T11:28:25;2.90;;;1.67;;
62153;SDS011;48140;45.486;9.226;2022-08-14T11:30:52;6.35;;;1.92;;
62153;SDS011;48140;45.486;9.226;2022-08-14T11:33:22;3.30;;;1.90;;
62153;SDS011;48140;45.486;9.226;2022-08-14T11:35:55;2.83;;;2.00;;
62153;SDS011;48140;45.486;9.226;2022-08-14T11:38:24;2.53;;;1.80;;
62153;SDS011;48140;45.486;9.226;2022-08-14T11:40:52;3.20;;;1.80;;
62153;SDS011;48140;45.486;9.226;2022-08-14T11:43:22;2.88;;;1.77;;
62153;SDS011;48140;45.486;9.226;2022-08-14T11:45:50;5.07;;;2.00;;
62153;SDS011;48140;45.486;9.226;2022-08-14T11:48:17;3.60;;;2.10;;
62153;SDS011;48140;45.486;9.226;2022-08-14T11:50:48;3.22;;;1.85;;
62153;SDS011;48140;45.486;9.226;2022-08-14T11:53:32;3.75;;;2.03;;
62153;SDS011;48140;45.486;9.226;2022-08-14T11:56:03;4.35;;;2.10;;
62153;SDS011;48140;45.486;9.226;2022-08-14T11:58:37;5.32;;;2.20;;
62153;SDS011;48140;45.486;9.226;2022-08-14T12:01:05;3.67;;;1.92;;
62153;SDS011;48140;45.486;9.226;2022-08-14T12:03:36;2.67;;;2.00;;
62153;SDS011;48140;45.486;9.226;2022-08-14T12:06:06;2.30;;;1.85;;
62153;SDS011;48140;45.486;9.226;2022-08-14T12:08:42;3.00;;;1.88;;
62153;SDS011;48140;45.486;9.226;2022-08-14T12:11:10;3.88;;;1.90;;
62153;SDS011;48140;45.486;9.226;2022-08-14T12:13:38;3.42;;;2.03;;
62153;SDS011;48140;45.486;9.226;2022-08-14T12:16:09;3.33;;;2.40;;
62153;SDS011;48140;45.486;9.226;2022-08-14T12:18:42;3.72;;;1.92;;
62153;SDS011;48140;45.486;9.226;2022-08-14T12:21:22;3.08;;;2.00;;
62153;SDS011;48140;45.486;9.226;2022-08-14T12:26:31;2.17;;;1.48;;
62153;SDS011;48140;45.486;9.226;2022-08-14T12:31:40;2.42;;;1.70;;
62153;SDS011;48140;45.486;9.226;2022-08-14T12:34:08;2.22;;;1.50;;
62153;SDS011;48140;45.486;9.226;2022-08-14T12:36:35;2.08;;;1.63;;
62153;SDS011;48140;45.486;9.226;2022-08-14T12:39:03;2.85;;;1.60;;
62153;SDS011;48140;45.486;9.226;2022-08-14T12:42:11;6.95;;;1.73;;
62153;SDS011;48140;45.486;9.226;2022-08-14T12:44:40;2.13;;;1.60;;
62153;SDS011;48140;45.486;9.226;2022-08-14T12:47:09;2.20;;;1.60;;
62153;SDS011;48140;45.486;9.226;2022-08-14T12:49:47;2.25;;;1.55;;
62153;SDS011;48140;45.486;9.226;2022-08-14T12:52:35;2.40;;;1.77;;
62153;SDS011;48140;45.486;9.226;2022-08-14T12:55:23;2.20;;;1.58;;
62153;SDS011;48140;45.486;9.226;2022-08-14T12:57:50;4.22;;;1.70;;
62153;SDS011;48140;45.486;9.226;2022-08-14T13:00:17;2.53;;;1.90;;
62153;SDS011;48140;45.486;9.226;2022-08-14T13:02:55;2.10;;;1.65;;
62153;SDS011;48140;45.486;9.226;2022-08-14T13:05:22;2.28;;;1.80;;
62153;SDS011;48140;45.486;9.226;2022-08-14T13:07:49;2.22;;;1.60;;
62153;SDS011;48140;45.486;9.226;2022-08-14T13:10:17;2.88;;;1.70;;
62153;SDS011;48140;45.486;9.226;2022-08-14T13:12:47;2.97;;;1.70;;
62153;SDS011;48140;45.486;9.226;2022-08-14T13:15:15;3.50;;;1.75;;
62153;SDS011;48140;45.486;9.226;2022-08-14T13:20:16;1.90;;;1.42;;
62153;SDS011;48140;45.486;9.226;2022-08-14T13:22:44;1.67;;;1.50;;
62153;SDS011;48140;45.486;9.226;2022-08-14T13:25:16;2.53;;;1.60;;
62153;SDS011;48140;45.486;9.226;2022-08-14T13:27:53;2.97;;;1.55;;
62153;SDS011;48140;45.486;9.226;2022-08-14T13:30:26;2.13;;;1.50;;
62153;SDS011;48140;45.486;9.226;2022-08-14T13:32:53;2.05;;;1.60;;
62153;SDS011;48140;45.486;9.226;2022-08-14T13:35:22;2.85;;;1.58;;
62153;SDS011;48140;45.486;9.226;2022-08-14T13:37:48;2.22;;;1.48;;
62153;SDS011;48140;45.486;9.226;2022-08-14T13:40:34;3.47;;;1.58;;
62153;SDS011;48140;45.486;9.226;2022-08-14T13:43:01;2.45;;;1.60;;
62153;SDS011;48140;45.486;9.226;2022-08-14T13:45:29;1.90;;;1.60;;
62153;SDS011;48140;45.486;9.226;2022-08-14T13:48:05;1.83;;;1.40;;
62153;SDS011;48140;45.486;9.226;2022-08-14T13:50:35;1.70;;;1.60;;
62153;SDS011;48140;45.486;9.226;2022-08-14T13:53:05;2.05;;;1.50;;
62153;SDS011;48140;45.486;9.226;2022-08-14T13:55:37;5.78;;;1.70;;
62153;SDS011;48140;45.486;9.226;2022-08-14T13:58:15;1.83;;;1.48;;
62153;SDS011;48140;45.486;9.226;2022-08-14T14:00:53;4.18;;;1.70;;
62153;SDS011;48140;45.486;9.226;2022-08-14T14:03:35;3.55;;;1.75;;
62153;SDS011;48140;45.486;9.226;2022-08-14T14:06:29;3.60;;;1.83;;
62153;SDS011;48140;45.486;9.226;2022-08-14T14:09:02;2.35;;;1.48;;
62153;SDS011;48140;45.486;9.226;2022-08-14T14:11:38;2.88;;;1.70;;
62153;SDS011;48140;45.486;9.226;2022-08-14T14:14:09;1.90;;;1.45;;
62153;SDS011;48140;45.486;9.226;2022-08-14T14:16:38;6.22;;;1.67;;
62153;SDS011;48140;45.486;9.226;2022-08-14T14:19:09;2.42;;;1.80;;
62153;SDS011;48140;45.486;9.226;2022-08-14T14:21:44;2.40;;;1.73;;
62153;SDS011;48140;45.486;9.226;2022-08-14T14:24:20;2.42;;;1.83;;
62153;SDS011;48140;45.486;9.226;2022-08-14T14:26:50;2.17;;;1.70;;
62153;SDS011;48140;45.486;9.226;2022-08-14T14:29:19;2.35;;;1.65;;
62153;SDS011;48140;45.486;9.226;2022-08-14T14:31:46;2.05;;;1.67;;
62153;SDS011;48140;45.486;9.226;2022-08-14T14:37:31;2.20;;;1.70;;
62153;SDS011;48140;45.486;9.226;2022-08-14T14:40:29;3.88;;;1.70;;
62153;SDS011;48140;45.486;9.226;2022-08-14T14:43:12;5.45;;;2.05;;
62153;SDS011;48140;45.486;9.226;2022-08-14T14:45:42;2.33;;;1.60;;
62153;SDS011;48140;45.486;9.226;2022-08-14T14:48:14;1.95;;;1.63;;
62153;SDS011;48140;45.486;9.226;2022-08-14T14:50:40;1.83;;;1.60;;
62153;SDS011;48140;45.486;9.226;2022-08-14T14:53:06;3.53;;;1.70;;
62153;SDS011;48140;45.486;9.226;2022-08-14T14:55:46;2.15;;;1.77;;
62153;SDS011;48140;45.486;9.226;2022-08-14T14:58:28;2.95;;;1.60;;
62153;SDS011;48140;45.486;9.226;2022-08-14T15:01:13;3.20;;;2.00;;
62153;SDS011;48140;45.486;9.226;2022-08-14T15:03:47;2.20;;;1.63;;
62153;SDS011;48140;45.486;9.226;2022-08-14T15:06:14;2.45;;;1.80;;
62153;SDS011;48140;45.486;9.226;2022-08-14T15:08:51;5.00;;;1.67;;
62153;SDS011;48140;45.486;9.226;2022-08-14T15:11:31;2.20;;;1.70;;
62153;SDS011;48140;45.486;9.226;2022-08-14T15:28:17;2.95;;;1.80;;
62153;SDS011;48140;45.486;9.226;2022-08-14T15:34:31;3.72;;;2.00;;
62153;SDS011;48140;45.486;9.226;2022-08-14T18:47:33;3.25;;;2.00;;
62153;SDS011;48140;45.486;9.226;2022-08-14T18:50:21;2.47;;;1.77;;
62153;SDS011;48140;45.486;9.226;2022-08-14T19:10:13;4.88;;;2.10;;
62153;SDS011;48140;45.486;9.226;2022-08-14T19:33:47;3.38;;;2.10;;
62153;SDS011;48140;45.486;9.226;2022-08-14T19:50:20;4.10;;;2.20;;
62153;SDS011;48140;45.486;9.226;2022-08-14T19:56:55;2.97;;;1.75;;
62153;SDS011;48140;45.486;9.226;2022-08-14T20:09:00;3.08;;;2.00;;
